Time;durP1;ratioP1;P1;durP2;ratioP2;P2;SDS_P1;SDS_P2;PMS_P1;PMS_P2;Temp;Humidity;BMP_temperature;BMP_pressure;BME280_temperature;BME280_humidity;BME280_pressure;Samples;Min_cycle;Max_cycle;Signal;HPM_P1;HPM_P2
2022/01/26 00:00:55;;;;;;;;;77.40;63.20;16.30;99.90;;;;;;5042626;28;8848;-65
2022/01/26 00:06:16;;;;;;;;;70.20;52.60;16.30;99.90;;;;;;5052207;28;8773;-65
2022/01/26 00:08:43;;;;;;;;;70.40;52.40;16.20;99.90;;;;;;5021873;28;8777;-65
2022/01/26 00:11:09;;;;;;;;;68.40;55.00;16.20;99.90;;;;;;5039529;28;8953;-65
2022/01/26 00:13:36;;;;;;;;;74.20;56.00;16.20;99.90;;;;;;5021322;28;8765;-65
2022/01/26 00:16:06;;;;;;;;;78.20;58.80;16.20;99.90;;;;;;5039736;28;8821;-65
2022/01/26 00:18:36;;;;;;;;;78.80;59.80;16.10;99.90;;;;;;5021572;28;8773;-65
2022/01/26 00:21:13;;;;;;;;;72.60;56.00;16.30;99.90;;;;;;5046319;28;8822;-65
2022/01/26 00:24:03;;;;;;;;;73.80;56.60;16.30;99.90;;;;;;5043045;28;8755;-65
2022/01/26 00:29:17;;;;;;;;;62.00;51.20;16.20;99.90;;;;;;5044168;28;8885;-65
2022/01/26 00:43:06;;;;;;;;;84.00;68.40;16.50;99.90;;;;;;4957832;28;8751;-64
2022/01/26 00:45:35;;;;;;;;;110.80;88.00;16.60;99.90;;;;;;4952260;28;8780;-64
2022/01/26 00:48:04;;;;;;;;;96.40;77.20;16.70;99.90;;;;;;4999658;28;8795;-65
2022/01/26 00:50:32;;;;;;;;;67.40;52.20;16.80;99.90;;;;;;5018131;28;8837;-65
2022/01/26 00:52:59;;;;;;;;;76.80;60.60;16.80;99.90;;;;;;5036990;28;8773;-68
2022/01/26 00:55:26;;;;;;;;;72.20;54.00;16.90;99.90;;;;;;5018303;28;8762;-68
2022/01/26 00:57:52;;;;;;;;;69.20;52.40;16.90;99.90;;;;;;5037804;28;8813;-69
2022/01/26 01:00:24;;;;;;;;;63.50;50.25;17.00;99.90;;;;;;5019280;28;8789;-68
2022/01/26 01:02:52;;;;;;;;;63.60;49.40;17.00;99.90;;;;;;5037954;28;8838;-69
2022/01/26 01:05:26;;;;;;;;;65.40;50.80;17.00;99.90;;;;;;5036145;28;8773;-66
2022/01/26 01:07:59;;;;;;;;;70.00;51.60;17.10;99.90;;;;;;5017582;28;8779;-67
2022/01/26 01:10:26;;;;;;;;;75.80;57.00;17.20;99.90;;;;;;5000374;28;8763;-65
2022/01/26 01:12:56;;;;;;;;;73.40;55.80;17.20;99.90;;;;;;5018789;28;8858;-72
2022/01/26 01:15:26;;;;;;;;;68.25;51.00;17.30;99.90;;;;;;5016171;28;8871;-65
2022/01/26 01:18:02;;;;;;;;;62.75;47.75;17.30;99.90;;;;;;5017934;28;8837;-65
2022/01/26 01:23:55;;;;;;;;;56.75;43.50;17.50;99.90;;;;;;5038061;28;8757;-64
2022/01/26 01:29:15;;;;;;;;;65.60;48.40;17.60;99.90;;;;;;5036746;28;8773;-66
2022/01/26 01:31:46;;;;;;;;;58.00;46.20;17.50;99.90;;;;;;5022499;28;8761;-65
2022/01/26 01:34:15;;;;;;;;;62.75;48.75;17.50;99.90;;;;;;5038704;28;8789;-66
2022/01/26 01:36:44;;;;;;;;;62.00;48.50;17.60;99.90;;;;;;5006682;28;8791;-65
2022/01/26 01:39:13;;;;;;;;;62.40;48.40;17.60;99.90;;;;;;5017117;28;8783;-66
2022/01/26 01:41:42;;;;;;;;;61.75;48.25;17.70;99.90;;;;;;5014781;28;8790;-66
2022/01/26 01:44:09;;;;;;;;;63.25;50.50;17.80;99.90;;;;;;5017267;28;9447;-69
2022/01/26 01:46:36;;;;;;;;;63.60;50.00;17.90;99.90;;;;;;4999617;28;8834;-70
2022/01/26 01:49:03;;;;;;;;;67.80;52.40;17.90;99.90;;;;;;5016581;28;8793;-68
2022/01/26 01:51:34;;;;;;;;;69.20;55.00;17.90;99.90;;;;;;5026441;28;8820;-69
2022/01/26 01:54:02;;;;;;;;;77.00;59.80;18.10;99.90;;;;;;5004036;28;8866;-68
2022/01/26 01:56:29;;;;;;;;;73.20;54.00;18.20;99.90;;;;;;5035829;28;8898;-70
2022/01/26 01:58:57;;;;;;;;;71.80;53.40;18.40;99.90;;;;;;5003306;28;8761;-70
2022/01/26 02:01:27;;;;;;;;;59.80;47.80;18.40;99.90;;;;;;5037065;28;8861;-68
2022/01/26 02:03:57;;;;;;;;;59.75;47.25;18.40;99.90;;;;;;5056806;28;8765;-68
2022/01/26 02:06:24;;;;;;;;;60.25;47.00;18.50;99.90;;;;;;5047051;28;8793;-69
2022/01/26 02:08:50;;;;;;;;;58.25;47.75;18.60;99.90;;;;;;5036859;28;8827;-68
2022/01/26 02:11:17;;;;;;;;;70.20;52.20;18.80;99.90;;;;;;5018398;28;8783;-71
2022/01/26 02:14:11;;;;;;;;;67.00;52.25;18.90;99.90;;;;;;5036859;28;9421;-69
2022/01/26 02:16:47;;;;;;;;;71.00;54.60;19.10;99.90;;;;;;5035927;28;8808;-70
2022/01/26 02:52:08;;;;;;;;;51.50;40.75;20.20;99.90;;;;;;5048143;28;8803;-66
2022/01/26 02:54:47;;;;;;;;;50.25;40.00;20.30;99.90;;;;;;5055471;28;8767;-67
2022/01/26 03:00:22;;;;;;;;;49.00;37.75;20.70;99.90;;;;;;5026454;28;8770;-69
2022/01/26 03:05:17;;;;;;;;;49.75;38.50;21.10;99.90;;;;;;5055827;28;8797;-70
2022/01/26 03:07:55;;;;;;;;;47.50;38.50;21.10;99.90;;;;;;5018619;28;8761;-65
2022/01/26 03:10:44;;;;;;;;;46.25;35.25;21.10;99.90;;;;;;5036929;28;8773;-64
2022/01/26 03:13:17;;;;;;;;;38.00;32.25;21.10;99.90;;;;;;5022934;28;8764;-66
2022/01/26 03:15:49;;;;;;;;;35.50;31.00;21.20;99.90;;;;;;5018689;28;8797;-66
2022/01/26 03:19:16;;;;;;;;;38.75;33.25;21.30;99.90;;;;;;5036581;28;8884;-72
2022/01/26 03:21:06;;;;;;;;;42.75;35.50;21.30;99.90;;;;;;5032284;28;8805;-71
2022/01/26 03:34:19;;;;;;;;;31.25;28.00;22.10;99.90;;;;;;5059263;28;8778;-68
2022/01/26 03:36:54;;;;;;;;;29.00;27.75;22.10;99.90;;;;;;5041910;28;8806;-66
2022/01/26 03:39:22;;;;;;;;;27.00;24.25;22.10;99.90;;;;;;5025617;28;9116;-67
2022/01/26 03:41:55;;;;;;;;;29.00;27.00;22.30;99.90;;;;;;5043000;28;8798;-67
2022/01/26 03:44:22;;;;;;;;;34.75;26.00;22.30;99.90;;;;;;5059370;28;8939;-71
2022/01/26 03:46:49;;;;;;;;;28.50;26.75;22.40;99.90;;;;;;5058541;28;9435;-72
2022/01/26 03:49:16;;;;;;;;;22.25;20.00;22.50;99.90;;;;;;5043172;28;8909;-69
2022/01/26 03:51:42;;;;;;;;;34.75;27.50;22.60;99.90;;;;;;5030319;28;8765;-66
2022/01/26 03:54:09;;;;;;;;;24.67;23.33;22.70;99.90;;;;;;5006071;28;8802;-67
2022/01/26 03:56:36;;;;;;;;;29.75;27.00;22.90;99.90;;;;;;5021959;28;8797;-68
2022/01/26 03:59:04;;;;;;;;;29.00;21.25;22.90;99.90;;;;;;5039691;28;8839;-65
2022/01/26 04:01:31;;;;;;;;;28.75;25.00;22.90;99.90;;;;;;5039206;28;8748;-66
2022/01/26 04:03:57;;;;;;;;;32.25;28.00;23.00;99.90;;;;;;5022603;28;8851;-66
2022/01/26 04:06:25;;;;;;;;;29.25;26.75;23.10;99.90;;;;;;5048107;28;8783;-66
2022/01/26 04:08:52;;;;;;;;;28.00;23.50;23.20;99.90;;;;;;5049750;28;8789;-67
2022/01/26 04:11:33;;;;;;;;;33.00;31.00;23.40;99.80;;;;;;5058653;28;8771;-69
2022/01/26 04:14:01;;;;;;;;;19.50;16.00;23.40;99.30;;;;;;5043651;28;8747;-67
2022/01/26 04:16:27;;;;;;;;;27.75;24.50;23.40;98.50;;;;;;5056724;28;8775;-70
2022/01/26 04:18:56;;;;;;;;;27.00;24.25;23.60;99.90;;;;;;5057406;28;8861;-66
2022/01/26 04:24:56;;;;;;;;;24.75;23.25;23.70;98.40;;;;;;5058689;28;8821;-68
2022/01/26 04:26:58;;;;;;;;;30.00;28.75;23.70;98.10;;;;;;5023516;28;8889;-66
2022/01/26 04:29:30;;;;;;;;;31.00;27.25;23.80;97.60;;;;;;5058081;28;8770;-68
2022/01/26 04:31:58;;;;;;;;;26.00;23.25;23.90;96.60;;;;;;5058195;28;8775;-66
2022/01/26 04:34:25;;;;;;;;;26.50;24.50;24.10;96.20;;;;;;5059806;28;8818;-66
2022/01/26 04:36:58;;;;;;;;;24.75;21.00;24.20;96.30;;;;;;5021308;28;9765;-66
2022/01/26 04:39:30;;;;;;;;;34.25;31.25;24.20;97.00;;;;;;5038651;28;8866;-65
2022/01/26 04:42:03;;;;;;;;;27.25;22.25;24.30;96.50;;;;;;5039009;28;9410;-65
2022/01/26 04:44:42;;;;;;;;;26.25;23.50;24.30;95.80;;;;;;5021665;28;8789;-66
2022/01/26 04:47:09;;;;;;;;;29.50;24.25;24.20;94.60;;;;;;5022861;28;8760;-66
2022/01/26 04:49:35;;;;;;;;;29.25;26.25;24.30;95.20;;;;;;5038196;28;8796;-65
2022/01/26 04:52:03;;;;;;;;;28.25;22.25;24.40;95.60;;;;;;5054204;28;8783;-66
2022/01/26 04:54:30;;;;;;;;;26.25;21.25;24.50;95.10;;;;;;5040595;28;9419;-66
2022/01/26 04:56:57;;;;;;;;;23.00;19.75;24.60;94.80;;;;;;5040485;28;8787;-67
2022/01/26 04:59:23;;;;;;;;;24.75;23.50;24.80;93.40;;;;;;5057638;28;8779;-66
2022/01/26 05:01:50;;;;;;;;;27.50;20.00;24.80;92.70;;;;;;5040040;28;8835;-66
2022/01/26 05:04:17;;;;;;;;;29.20;24.20;24.90;94.20;;;;;;5040276;28;8735;-66
2022/01/26 05:06:43;;;;;;;;;24.00;23.00;24.90;93.90;;;;;;5058234;28;8782;-66
2022/01/26 05:09:10;;;;;;;;;28.80;22.80;25.00;92.90;;;;;;5057565;28;8775;-66
2022/01/26 05:11:40;;;;;;;;;19.50;18.75;25.00;92.90;;;;;;5040089;28;9249;-66
2022/01/26 05:14:16;;;;;;;;;26.50;23.50;25.10;93.00;;;;;;5058325;28;8771;-66
2022/01/26 05:16:43;;;;;;;;;24.50;21.50;25.20;92.30;;;;;;5057607;28;8783;-70
2022/01/26 05:19:09;;;;;;;;;24.50;20.25;25.40;92.20;;;;;;5039853;28;8743;-65
2022/01/26 05:21:36;;;;;;;;;28.75;22.25;25.60;91.60;;;;;;5039735;28;8799;-65
2022/01/26 05:24:03;;;;;;;;;22.50;21.25;25.70;92.40;;;;;;5057665;28;9298;-65
2022/01/26 05:26:30;;;;;;;;;20.75;19.75;25.80;91.40;;;;;;5057758;28;8766;-65
2022/01/26 05:28:57;;;;;;;;;24.00;20.25;25.80;91.40;;;;;;5057815;28;8750;-66
2022/01/26 05:31:23;;;;;;;;;22.25;22.25;25.80;91.40;;;;;;5040047;28;8866;-66
2022/01/26 05:33:50;;;;;;;;;25.25;21.50;25.90;90.30;;;;;;5057556;28;8790;-65
2022/01/26 05:36:17;;;;;;;;;25.75;22.50;26.00;90.50;;;;;;5056859;28;8795;-66
2022/01/26 05:38:44;;;;;;;;;20.50;16.75;26.10;90.20;;;;;;5022892;28;8820;-65
2022/01/26 05:41:11;;;;;;;;;27.25;21.00;26.10;90.30;;;;;;5057346;28;8763;-65
2022/01/26 05:43:38;;;;;;;;;23.00;18.25;26.10;89.80;;;;;;5040797;28;8783;-66
2022/01/26 05:46:13;;;;;;;;;26.00;21.25;26.20;89.00;;;;;;5057875;28;9252;-66
2022/01/26 05:48:44;;;;;;;;;18.00;17.00;26.30;88.10;;;;;;5038812;28;8908;-66
2022/01/26 05:51:11;;;;;;;;;22.00;17.25;26.50;87.80;;;;;;5049207;28;8998;-66
2022/01/26 05:53:39;;;;;;;;;21.00;17.60;26.60;86.50;;;;;;5036474;28;8807;-66
2022/01/26 05:56:06;;;;;;;;;23.50;19.50;26.70;86.00;;;;;;5034919;28;8787;-66
2022/01/26 05:58:32;;;;;;;;;21.50;18.25;26.70;84.70;;;;;;5035896;28;8761;-66
2022/01/26 06:01:00;;;;;;;;;20.75;19.25;26.70;84.80;;;;;;5035673;28;8773;-65
2022/01/26 06:03:28;;;;;;;;;20.50;19.00;26.80;84.50;;;;;;5036179;28;8795;-65
2022/01/26 06:05:54;;;;;;;;;23.75;19.00;26.80;84.00;;;;;;5023935;28;8798;-65
2022/01/26 06:08:22;;;;;;;;;21.00;17.50;26.70;84.20;;;;;;5038010;28;8789;-65
2022/01/26 06:10:51;;;;;;;;;18.25;17.00;26.60;83.90;;;;;;5053228;28;8779;-66
2022/01/26 06:13:18;;;;;;;;;21.25;17.75;26.70;84.40;;;;;;5055355;28;8777;-65
2022/01/26 06:15:45;;;;;;;;;23.00;20.50;26.70;83.70;;;;;;5055509;28;8919;-66
2022/01/26 06:18:12;;;;;;;;;20.00;19.50;26.80;83.20;;;;;;5037323;28;8814;-69
2022/01/26 06:20:39;;;;;;;;;14.50;13.75;26.90;84.60;;;;;;5052799;28;8762;-68
2022/01/26 06:23:06;;;;;;;;;19.00;16.50;26.90;83.90;;;;;;5036186;28;8753;-67
2022/01/26 06:25:33;;;;;;;;;17.00;16.75;26.90;83.40;;;;;;5018337;28;8750;-67
2022/01/26 06:28:01;;;;;;;;;19.25;18.75;27.00;84.50;;;;;;5002808;28;8741;-69
2022/01/26 06:30:28;;;;;;;;;18.25;17.75;27.00;85.20;;;;;;5018163;28;8757;-68
2022/01/26 06:32:58;;;;;;;;;17.75;15.75;27.30;80.80;;;;;;5036028;28;8738;-69
2022/01/26 06:35:25;;;;;;;;;16.25;16.00;27.40;80.90;;;;;;5036077;28;9396;-70
2022/01/26 06:37:51;;;;;;;;;14.50;13.50;27.50;79.80;;;;;;5038706;28;8762;-69
2022/01/26 06:40:18;;;;;;;;;21.50;18.00;27.60;79.20;;;;;;5039208;28;8821;-69
2022/01/26 06:43:01;;;;;;;;;20.50;17.50;27.60;81.10;;;;;;5056520;28;8885;-69
2022/01/26 06:45:32;;;;;;;;;20.75;18.00;27.70;81.70;;;;;;5056174;28;8723;-70
2022/01/26 06:50:29;;;;;;;;;15.50;14.25;27.90;78.50;;;;;;5057156;28;8759;-70
2022/01/26 06:52:55;;;;;;;;;16.50;13.50;28.10;75.70;;;;;;5056869;28;8759;-71
2022/01/26 06:55:22;;;;;;;;;19.00;19.00;28.30;76.20;;;;;;5039076;28;8743;-69
2022/01/26 06:57:49;;;;;;;;;12.00;12.00;28.40;72.60;;;;;;5056503;28;8779;-70
2022/01/26 07:00:16;;;;;;;;;15.00;13.00;28.40;75.50;;;;;;5005771;28;8751;-70
2022/01/26 07:02:42;;;;;;;;;15.75;15.50;28.50;74.20;;;;;;5053316;28;8762;-71
2022/01/26 07:05:13;;;;;;;;;17.50;16.50;28.60;73.30;;;;;;5054237;28;8779;-70
2022/01/26 07:07:40;;;;;;;;;19.75;17.75;28.50;73.80;;;;;;5034117;28;9382;-69
2022/01/26 07:10:07;;;;;;;;;17.75;15.75;28.50;74.50;;;;;;5021588;28;8752;-71
2022/01/26 07:12:34;;;;;;;;;18.50;16.50;28.70;74.00;;;;;;5036814;28;8761;-71
2022/01/26 07:23:09;;;;;;;;;19.50;17.75;28.70;74.50;;;;;;5027592;28;8761;-70
2022/01/26 07:25:36;;;;;;;;;18.25;17.25;28.70;73.10;;;;;;5037779;28;8730;-70
2022/01/26 07:28:05;;;;;;;;;18.50;17.75;28.60;73.30;;;;;;5037633;28;8773;-71
2022/01/26 07:30:32;;;;;;;;;16.25;14.25;28.70;73.80;;;;;;5037737;28;8766;-70
2022/01/26 07:32:58;;;;;;;;;23.00;19.25;28.80;74.30;;;;;;5037967;28;8774;-70
2022/01/26 07:35:25;;;;;;;;;21.00;18.25;28.90;74.40;;;;;;5037481;28;8840;-70
2022/01/26 07:37:56;;;;;;;;;20.00;18.75;28.90;72.20;;;;;;5038017;28;8774;-70
2022/01/26 07:40:23;;;;;;;;;19.75;18.25;28.80;73.50;;;;;;5036126;28;8849;-71
2022/01/26 07:42:50;;;;;;;;;19.50;16.50;28.90;71.50;;;;;;5020443;28;8754;-71
2022/01/26 07:45:18;;;;;;;;;19.25;17.50;28.80;71.80;;;;;;5036748;28;8796;-69
2022/01/26 07:47:52;;;;;;;;;17.00;15.00;28.80;72.10;;;;;;5037483;28;8784;-70
2022/01/26 07:50:20;;;;;;;;;18.25;17.25;28.90;70.00;;;;;;5036828;28;8770;-69
2022/01/26 07:52:46;;;;;;;;;24.25;18.25;29.10;71.60;;;;;;5016624;28;8804;-71
2022/01/26 07:55:19;;;;;;;;;17.00;15.00;29.00;71.00;;;;;;5017759;28;8748;-71
2022/01/26 07:57:48;;;;;;;;;20.00;18.25;28.90;71.60;;;;;;5000254;28;8891;-70
2022/01/26 08:00:15;;;;;;;;;20.75;19.25;28.90;71.20;;;;;;5017199;28;8773;-71
2022/01/26 08:02:43;;;;;;;;;17.20;17.20;28.90;72.00;;;;;;5017158;28;8769;-70
2022/01/26 08:05:10;;;;;;;;;19.80;17.00;29.00;70.90;;;;;;5017137;28;8815;-70
2022/01/26 08:07:37;;;;;;;;;23.50;20.75;28.90;71.80;;;;;;5036105;28;8884;-70
2022/01/26 08:10:05;;;;;;;;;19.00;16.00;28.90;72.10;;;;;;5037149;28;8812;-70
2022/01/26 08:12:31;;;;;;;;;19.00;18.25;28.90;72.30;;;;;;5035154;28;8757;-70
2022/01/26 08:14:58;;;;;;;;;18.60;17.80;28.90;72.30;;;;;;5035666;28;8827;-70
2022/01/26 08:17:28;;;;;;;;;19.80;17.20;28.90;71.80;;;;;;5044736;28;8798;-70
2022/01/26 08:19:56;;;;;;;;;23.00;21.50;28.90;72.40;;;;;;5055992;28;9071;-72
2022/01/26 08:22:25;;;;;;;;;20.50;19.25;28.90;72.30;;;;;;5039136;28;8875;-70
2022/01/26 08:24:52;;;;;;;;;24.50;20.75;29.00;72.80;;;;;;5036047;28;9818;-68
2022/01/26 08:27:21;;;;;;;;;19.00;19.00;29.20;72.40;;;;;;5036092;28;8769;-67
2022/01/26 08:29:52;;;;;;;;;19.50;18.50;29.20;71.20;;;;;;5036160;28;8861;-68
2022/01/26 08:32:18;;;;;;;;;23.00;21.75;29.20;73.10;;;;;;5035880;28;8842;-67
2022/01/26 08:34:45;;;;;;;;;21.25;18.25;29.20;72.70;;;;;;5036655;28;8843;-68
2022/01/26 08:37:12;;;;;;;;;21.00;20.50;29.20;72.60;;;;;;5052596;28;8771;-69
2022/01/26 08:39:38;;;;;;;;;23.75;21.25;29.10;72.10;;;;;;5039013;28;8771;-70
2022/01/26 08:44:52;;;;;;;;;20.00;19.00;29.10;72.80;;;;;;5042100;28;8778;-70
2022/01/26 08:47:18;;;;;;;;;21.50;18.00;29.10;71.80;;;;;;5056439;28;8782;-69
2022/01/26 08:49:45;;;;;;;;;18.75;15.50;29.30;73.00;;;;;;5057012;28;8832;-71
2022/01/26 08:52:12;;;;;;;;;23.00;18.75;29.40;73.30;;;;;;5039923;28;8815;-70
2022/01/26 08:54:38;;;;;;;;;23.25;19.75;29.30;72.70;;;;;;5036239;28;8887;-71
2022/01/26 08:57:05;;;;;;;;;17.00;16.50;29.30;72.40;;;;;;5037091;28;8772;-71
2022/01/26 08:59:32;;;;;;;;;22.50;17.25;29.30;71.60;;;;;;5018373;28;8788;-70
2022/01/26 09:01:58;;;;;;;;;20.50;19.25;29.20;70.60;;;;;;5036603;28;8764;-70
2022/01/26 09:04:26;;;;;;;;;19.75;18.75;29.10;72.80;;;;;;5017781;28;8755;-69
2022/01/26 09:06:56;;;;;;;;;18.00;17.75;29.10;71.60;;;;;;5049640;28;8743;-70
2022/01/26 09:09:31;;;;;;;;;19.75;18.50;29.10;70.70;;;;;;5055800;28;8902;-71
2022/01/26 09:12:00;;;;;;;;;23.50;19.75;29.20;71.50;;;;;;5056066;28;8804;-70
2022/01/26 09:14:29;;;;;;;;;20.25;17.50;29.20;71.20;;;;;;5055720;28;8755;-71
2022/01/26 09:16:55;;;;;;;;;21.25;18.25;29.30;72.40;;;;;;5034759;28;8794;-70
2022/01/26 09:19:32;;;;;;;;;26.75;21.00;29.20;71.50;;;;;;5036279;28;9435;-70
2022/01/26 09:22:04;;;;;;;;;24.75;20.25;29.30;72.70;;;;;;5021877;28;9405;-70
2022/01/26 09:24:31;;;;;;;;;21.20;20.20;29.20;73.10;;;;;;5015679;28;8757;-71
2022/01/26 09:26:58;;;;;;;;;19.75;18.50;29.20;71.40;;;;;;5015803;28;8755;-70
2022/01/26 09:29:25;;;;;;;;;19.00;16.75;29.30;71.10;;;;;;5015696;28;8752;-70
2022/01/26 09:31:52;;;;;;;;;22.25;20.75;29.20;70.90;;;;;;4999514;28;8807;-70
2022/01/26 09:34:19;;;;;;;;;20.50;20.25;29.20;70.70;;;;;;5018836;28;8843;-69
2022/01/26 09:36:46;;;;;;;;;19.00;18.75;29.20;71.70;;;;;;5012809;28;8790;-70
2022/01/26 09:39:14;;;;;;;;;20.75;16.25;29.10;72.70;;;;;;5036940;28;8742;-71
2022/01/26 09:41:41;;;;;;;;;22.00;21.50;29.10;72.10;;;;;;5038034;28;8734;-70
2022/01/26 09:44:07;;;;;;;;;27.25;22.25;29.20;71.40;;;;;;5036403;28;8765;-70
2022/01/26 09:46:34;;;;;;;;;20.25;20.00;29.20;71.10;;;;;;5036303;28;8773;-70
2022/01/26 09:49:04;;;;;;;;;20.50;20.50;29.20;71.90;;;;;;5038569;28;9386;-70
2022/01/26 09:51:38;;;;;;;;;24.00;21.50;29.20;72.40;;;;;;5036476;28;9392;-70
2022/01/26 09:54:11;;;;;;;;;18.75;17.00;29.20;70.60;;;;;;5037602;28;8725;-70
2022/01/26 09:56:38;;;;;;;;;21.50;19.25;29.10;73.20;;;;;;5037312;28;8789;-69
2022/01/26 09:59:06;;;;;;;;;24.50;21.25;29.00;72.60;;;;;;5037931;28;8752;-70
2022/01/26 10:01:44;;;;;;;;;17.50;17.50;28.90;73.20;;;;;;5036780;28;8727;-70
2022/01/26 10:04:28;;;;;;;;;24.00;19.75;29.00;71.10;;;;;;5038168;28;8815;-70
2022/01/26 10:10:03;;;;;;;;;22.25;21.50;29.10;71.90;;;;;;5037253;28;8818;-69
2022/01/26 10:18:02;;;;;;;;;22.75;20.00;29.10;72.10;;;;;;5049442;28;8901;-69
2022/01/26 10:20:54;;;;;;;;;26.50;22.50;28.90;72.90;;;;;;5054802;28;8762;-69
2022/01/26 10:23:22;;;;;;;;;24.00;21.75;28.80;73.40;;;;;;5003984;28;8753;-69
2022/01/26 10:26:08;;;;;;;;;23.75;21.25;28.80;72.30;;;;;;5036744;28;8780;-69
2022/01/26 10:28:56;;;;;;;;;20.00;17.00;28.80;71.30;;;;;;5037449;28;8730;-70
2022/01/26 10:31:39;;;;;;;;;20.50;20.50;28.70;72.40;;;;;;5037570;28;8838;-69
2022/01/26 10:34:17;;;;;;;;;24.00;21.50;28.60;71.80;;;;;;5037542;28;8807;-70
2022/01/26 10:36:58;;;;;;;;;26.00;24.75;28.50;73.60;;;;;;5049197;28;8913;-70
2022/01/26 10:39:37;;;;;;;;;28.25;25.50;28.40;73.80;;;;;;5056993;28;8767;-70
2022/01/26 10:42:08;;;;;;;;;33.25;30.00;28.30;74.80;;;;;;5057328;28;8767;-70
2022/01/26 10:45:04;;;;;;;;;35.25;31.00;28.20;75.00;;;;;;5056806;28;9444;-70
2022/01/26 10:47:36;;;;;;;;;37.75;32.75;28.10;75.90;;;;;;5056687;28;8758;-70
2022/01/26 10:53:12;;;;;;;;;38.25;32.00;27.90;76.90;;;;;;5024682;28;8842;-70
2022/01/26 10:55:39;;;;;;;;;37.50;33.50;27.80;78.00;;;;;;5036879;28;8807;-70
2022/01/26 10:58:07;;;;;;;;;32.25;26.50;27.60;77.20;;;;;;5037513;28;8793;-70
2022/01/26 11:00:36;;;;;;;;;38.75;31.25;27.50;77.50;;;;;;5036455;28;8788;-70
2022/01/26 11:03:05;;;;;;;;;36.25;31.25;27.30;78.60;;;;;;5019617;28;8793;-70
2022/01/26 11:05:32;;;;;;;;;34.25;30.75;27.20;81.00;;;;;;5038388;28;8780;-69
2022/01/26 11:07:59;;;;;;;;;33.50;27.00;27.10;83.70;;;;;;5056736;28;8830;-70
2022/01/26 11:10:37;;;;;;;;;32.50;31.25;26.90;85.30;;;;;;5038351;28;9931;-69
2022/01/26 11:13:05;;;;;;;;;28.50;26.00;26.70;84.90;;;;;;5057158;28;8759;-70
2022/01/26 11:15:32;;;;;;;;;31.25;25.75;26.70;84.10;;;;;;5022699;28;8766;-70
2022/01/26 11:18:20;;;;;;;;;30.50;26.50;26.50;83.40;;;;;;5056078;28;8848;-70
2022/01/26 11:20:51;;;;;;;;;30.50;27.75;26.40;82.50;;;;;;5034262;28;8805;-69
2022/01/26 11:23:19;;;;;;;;;30.25;25.25;26.30;82.30;;;;;;5036830;28;8854;-69
2022/01/26 11:25:48;;;;;;;;;33.00;25.75;26.20;83.10;;;;;;5019047;28;8753;-70
2022/01/26 11:28:25;;;;;;;;;33.50;25.50;26.00;83.20;;;;;;5036618;28;8745;-70
2022/01/26 11:30:53;;;;;;;;;34.00;30.75;26.00;84.10;;;;;;5036780;28;8813;-70
2022/01/26 11:33:22;;;;;;;;;32.00;27.50;25.80;85.40;;;;;;5018518;28;8753;-69
2022/01/26 11:35:51;;;;;;;;;37.00;33.00;25.80;86.00;;;;;;5040895;28;8783;-70
2022/01/26 11:47:30;;;;;;;;;34.50;30.50;25.40;92.60;;;;;;5056608;28;8743;-69
2022/01/26 11:50:23;;;;;;;;;44.25;35.25;25.30;95.00;;;;;;5056461;28;8874;-69
2022/01/26 11:53:03;;;;;;;;;49.00;38.75;25.10;94.40;;;;;;5033404;28;8859;-69
2022/01/26 11:55:57;;;;;;;;;51.50;42.00;25.00;95.10;;;;;;5039558;28;8767;-69
2022/01/26 11:58:42;;;;;;;;;58.75;45.50;24.90;95.00;;;;;;5024115;28;8809;-69
2022/01/26 12:01:19;;;;;;;;;72.80;53.80;24.70;95.50;;;;;;5040653;28;8883;-69
2022/01/26 12:04:11;;;;;;;;;68.40;52.00;24.60;95.40;;;;;;5040149;28;8761;-70
2022/01/26 12:06:47;;;;;;;;;73.50;55.75;24.50;96.50;;;;;;5050669;28;9552;-69
2022/01/26 12:09:13;;;;;;;;;78.40;61.00;24.40;97.80;;;;;;5043326;28;8779;-70
2022/01/26 12:11:40;;;;;;;;;69.40;53.60;24.40;96.90;;;;;;5059604;28;8775;-69
2022/01/26 12:14:11;;;;;;;;;69.00;53.20;24.30;96.20;;;;;;5059571;28;8771;-69
2022/01/26 12:16:42;;;;;;;;;66.00;49.40;24.20;96.00;;;;;;5046485;28;8811;-69
2022/01/26 12:19:26;;;;;;;;;55.75;45.25;24.00;96.50;;;;;;5018965;28;8747;-70
2022/01/26 12:34:01;;;;;;;;;63.20;49.80;23.70;99.70;;;;;;5000327;28;8777;-70
2022/01/26 12:37:05;;;;;;;;;70.80;56.80;23.60;99.90;;;;;;5008660;28;8822;-69
2022/01/26 12:41:14;;;;;;;;;78.80;61.60;23.20;99.90;;;;;;5018588;28;8763;-68
2022/01/26 12:42:14;;;;;;;;;78.60;60.00;23.10;99.90;;;;;;5018881;28;9474;-69
2022/01/26 12:44:40;;;;;;;;;76.00;58.00;23.20;99.90;;;;;;5019547;28;8844;-70
2022/01/26 12:47:07;;;;;;;;;77.20;62.20;23.20;99.90;;;;;;5019084;28;8790;-69
2022/01/26 12:49:34;;;;;;;;;73.80;57.00;23.30;99.90;;;;;;5001938;28;8824;-69
2022/01/26 12:52:00;;;;;;;;;75.20;56.00;23.30;99.90;;;;;;5005921;28;8788;-70
2022/01/26 12:54:30;;;;;;;;;64.20;47.80;23.30;99.90;;;;;;4998402;28;8900;-69
2022/01/26 12:57:06;;;;;;;;;64.20;50.40;23.30;99.90;;;;;;4999699;28;8851;-70
2022/01/26 12:59:33;;;;;;;;;67.50;53.50;23.30;99.90;;;;;;4982167;28;8923;-69
2022/01/26 13:01:59;;;;;;;;;62.75;50.25;23.20;99.90;;;;;;4999781;28;8761;-69
2022/01/26 13:04:27;;;;;;;;;67.40;51.60;23.10;99.90;;;;;;4997864;28;8769;-69
2022/01/26 13:06:54;;;;;;;;;68.80;51.20;23.10;99.90;;;;;;5011424;28;8807;-70
2022/01/26 13:09:25;;;;;;;;;75.00;56.80;23.10;99.90;;;;;;5017681;28;8805;-69
2022/01/26 13:11:52;;;;;;;;;77.00;56.80;23.00;99.90;;;;;;5018923;28;9924;-69
2022/01/26 13:14:40;;;;;;;;;72.00;56.00;23.00;99.90;;;;;;5018688;28;8755;-68
2022/01/26 13:25:43;;;;;;;;;76.20;58.20;22.70;99.90;;;;;;5038673;28;8737;-69
2022/01/26 13:38:26;;;;;;;;;75.20;56.20;22.50;99.90;;;;;;5041714;28;8802;-70
2022/01/26 13:41:02;;;;;;;;;79.40;63.20;22.50;99.90;;;;;;5058452;28;9455;-69
2022/01/26 13:51:41;;;;;;;;;77.60;60.20;22.20;99.90;;;;;;5040013;28;8794;-69
2022/01/26 13:54:45;;;;;;;;;76.20;56.60;22.30;99.90;;;;;;5057477;28;8763;-69
2022/01/26 13:57:13;;;;;;;;;75.80;56.80;22.20;99.90;;;;;;5057581;28;8833;-70
2022/01/26 13:59:51;;;;;;;;;72.00;55.00;22.20;99.90;;;;;;5057571;28;8755;-69
2022/01/26 14:02:17;;;;;;;;;72.60;57.00;22.30;99.90;;;;;;5057929;28;8854;-68
2022/01/26 14:04:44;;;;;;;;;74.20;57.20;22.20;99.90;;;;;;5057198;28;8800;-69
2022/01/26 14:07:11;;;;;;;;;76.80;57.60;22.10;99.90;;;;;;5057753;28;8786;-69
2022/01/26 14:09:38;;;;;;;;;77.40;57.20;22.00;99.90;;;;;;5057137;28;8811;-69
2022/01/26 14:12:10;;;;;;;;;72.00;55.20;22.00;99.90;;;;;;5039994;28;8812;-69
2022/01/26 14:14:42;;;;;;;;;75.00;56.60;21.90;99.90;;;;;;5039810;28;8758;-69
2022/01/26 14:17:15;;;;;;;;;75.40;57.20;21.90;99.90;;;;;;5037012;28;8856;-69
2022/01/26 14:20:41;;;;;;;;;73.40;57.00;22.00;99.90;;;;;;5057370;28;8833;-69
2022/01/26 14:25:28;;;;;;;;;77.00;60.20;21.90;99.90;;;;;;5014482;28;8741;-69
2022/01/26 14:27:59;;;;;;;;;75.00;56.80;21.90;99.90;;;;;;5037700;28;8764;-69
2022/01/26 14:41:04;;;;;;;;;72.00;58.00;21.60;99.90;;;;;;5057042;28;9332;-69
2022/01/26 15:48:52;;;;;;;;;81.00;70.20;20.60;99.90;;;;;;5001139;28;8786;-68
2022/01/26 16:07:43;;;;;;;;;75.00;58.60;20.30;99.90;;;;;;4985064;28;8766;-68
2022/01/26 17:03:05;;;;;;;;;67.40;53.80;19.60;99.90;;;;;;5039096;28;8754;-68
2022/01/26 17:11:26;;;;;;;;;66.60;50.60;19.50;99.90;;;;;;5038611;28;8766;-68
2022/01/26 17:46:43;;;;;;;;;75.80;60.40;19.30;99.90;;;;;;5038348;28;8738;-68
2022/01/26 18:32:57;;;;;;;;;76.80;60.00;18.50;99.90;;;;;;5017699;28;8777;-68
2022/01/26 18:51:36;;;;;;;;;70.20;53.60;18.30;99.90;;;;;;5027076;28;8918;-68
2022/01/26 18:54:04;;;;;;;;;73.00;56.60;18.30;99.90;;;;;;5016734;28;8796;-68
2022/01/26 18:56:31;;;;;;;;;72.20;54.40;18.20;99.90;;;;;;5016092;28;8761;-68
2022/01/26 18:58:57;;;;;;;;;72.60;58.60;18.30;99.90;;;;;;5017145;28;8768;-68
2022/01/26 19:01:24;;;;;;;;;75.00;58.20;18.30;99.90;;;;;;5017328;28;9425;-68
2022/01/26 19:03:51;;;;;;;;;72.00;54.00;18.30;99.90;;;;;;5017022;28;8760;-68
2022/01/26 19:06:17;;;;;;;;;76.80;59.40;18.30;99.90;;;;;;5024878;28;8770;-68
2022/01/26 19:08:44;;;;;;;;;70.60;57.40;18.40;99.90;;;;;;5036605;28;8766;-68
2022/01/26 19:11:12;;;;;;;;;74.00;60.00;18.40;99.90;;;;;;5036876;28;9528;-69
2022/01/26 19:13:41;;;;;;;;;74.80;57.20;18.20;99.90;;;;;;5036541;28;8777;-68
2022/01/26 19:16:26;;;;;;;;;76.80;60.40;18.20;99.90;;;;;;5037062;28;8743;-69
2022/01/26 19:26:42;;;;;;;;;71.00;54.20;18.40;99.90;;;;;;5016598;28;8804;-68
2022/01/26 19:29:29;;;;;;;;;76.00;58.60;18.40;99.90;;;;;;5016560;28;8788;-68
2022/01/26 19:43:34;;;;;;;;;71.00;55.00;18.30;99.90;;;;;;5036469;28;8766;-68
2022/01/26 19:46:50;;;;;;;;;72.00;56.80;18.10;99.90;;;;;;5036140;28;8790;-68